Airport View

Enter AWOS ICAO identifier for current METAR.

ex. KFNL

KHYW 262245Z AUTO 21008KT 10SM SCT100 16/15 A2977 RMK AO2

26 Feb 2020 22:55

Frequency: 119.525

Phone: 843-397-8046

Other Area AWOS: KMYR - KCRE - KMAO - KGGE

TAF KMYR 261812Z 2618/2718 19011KT 5SM -SHRA BR BKN050 OVC100 FM270300 27013G21KT 6SM -SHRA BR OVC010 FM270500 28015G24KT P6SM BKN060